Time;durP1;ratioP1;P1;durP2;ratioP2;P2;SDS_P1;SDS_P2;PMS_P1;PMS_P2;Temp;Humidity;BMP_temperature;BMP_pressure;BME280_temperature;BME280_humidity;BME280_pressure;Samples;Min_cycle;Max_cycle;Signal;HPM_P1;HPM_P2
2023/09/03 00:00:53;;;;;;;14.93;13.57;;;16.00;99.90;;;-141.84;96.85;20002.84;5037541;28;21263;-66
2023/09/03 00:03:21;;;;;;;14.65;13.32;;;16.00;99.90;;;-141.84;96.43;20041.47;5031206;28;20863;-66
2023/09/03 00:05:53;;;;;;;14.43;13.05;;;16.20;99.90;;;-141.84;96.28;19990.66;5005072;28;20317;-66
2023/09/03 00:08:22;;;;;;;14.90;13.50;;;16.10;99.90;;;-141.84;96.26;20055.69;5024830;28;20314;-66
2023/09/03 00:10:52;;;;;;;14.88;13.48;;;16.10;99.90;;;-141.84;96.17;20015.03;5017256;28;20258;-67
2023/09/03 00:13:21;;;;;;;14.43;13.23;;;16.10;99.90;;;-141.84;96.32;19964.25;5024558;28;20240;-66
2023/09/03 00:15:49;;;;;;;15.77;14.38;;;16.00;99.90;;;-141.84;96.53;19988.63;5024230;28;21025;-66
2023/09/03 00:18:17;;;;;;;14.63;13.32;;;16.00;99.90;;;-141.84;96.61;19988.63;5024301;28;20669;-66
2023/09/03 00:21:00;;;;;;;15.68;14.20;;;15.90;99.90;;;-141.84;96.70;19962.19;5018251;28;20198;-67
2023/09/03 00:23:30;;;;;;;14.73;13.35;;;16.00;99.90;;;-141.84;96.87;19986.59;5009630;28;20233;-66
2023/09/03 00:25:58;;;;;;;16.80;15.15;;;16.00;99.90;;;-141.84;96.99;19978.47;5016141;28;20248;-66
2023/09/03 00:28:28;;;;;;;16.30;14.88;;;15.90;99.90;;;-141.84;97.07;19935.78;5004461;28;20298;-67
2023/09/03 00:31:08;;;;;;;16.40;14.75;;;15.90;99.90;;;-141.84;97.28;20000.81;4999125;28;20243;-66
2023/09/03 00:33:38;;;;;;;17.20;14.82;;;15.90;99.90;;;-141.84;97.48;19982.53;5004670;28;20237;-67
2023/09/03 00:36:09;;;;;;;16.30;14.73;;;15.90;99.90;;;-141.84;97.54;19952.03;5004820;28;20213;-66
2023/09/03 00:38:39;;;;;;;15.45;14.05;;;15.90;99.90;;;-141.84;97.66;19950.00;4996951;28;20210;-66
2023/09/03 00:41:07;;;;;;;15.10;13.70;;;15.90;99.90;;;-141.84;97.63;19911.41;5004463;28;20325;-66
2023/09/03 00:43:35;;;;;;;16.42;15.02;;;15.90;99.90;;;-141.84;97.78;19935.78;5003978;28;20328;-66
2023/09/03 00:46:08;;;;;;;16.58;14.90;;;15.90;99.90;;;-141.84;98.01;19915.47;5004602;28;20226;-65
2023/09/03 00:48:39;;;;;;;16.48;14.98;;;15.90;99.90;;;-141.84;97.96;19935.78;4997255;28;20218;-66
2023/09/03 00:51:10;;;;;;;16.48;14.85;;;15.90;99.90;;;-141.84;98.02;19919.53;5004647;28;20281;-65
2023/09/03 00:53:44;;;;;;;17.10;15.40;;;15.90;99.90;;;-141.84;98.10;19927.66;5006153;28;20564;-66
2023/09/03 00:56:13;;;;;;;17.45;15.73;;;15.90;99.90;;;-141.84;98.30;19911.41;5023761;28;20311;-66
2023/09/03 00:58:43;;;;;;;17.38;15.75;;;15.90;99.90;;;-141.84;98.25;19905.28;5017419;28;20685;-67
2023/09/03 01:01:11;;;;;;;17.13;15.48;;;15.90;99.90;;;-141.84;98.21;19941.88;5034703;28;20714;-66
2023/09/03 01:03:42;;;;;;;16.77;15.18;;;15.80;99.90;;;-141.84;98.06;19935.78;5030334;28;20752;-67
2023/09/03 01:06:12;;;;;;;16.70;15.10;;;16.00;99.90;;;-141.84;97.75;19939.84;5026282;28;20212;-66
2023/09/03 01:08:41;;;;;;;16.55;14.95;;;16.00;99.90;;;-141.84;97.68;19964.25;5037975;28;20233;-67
2023/09/03 01:11:27;;;;;;;16.80;15.20;;;15.90;99.90;;;-141.84;97.51;19941.88;5042949;28;20233;-67
2023/09/03 01:14:14;;;;;;;16.00;14.50;;;16.00;99.90;;;-141.84;97.48;19962.19;5043551;28;20320;-65
2023/09/03 01:17:03;;;;;;;15.75;14.25;;;15.90;99.90;;;-141.84;97.51;19939.84;5037036;28;20268;-59
2023/09/03 01:19:58;;;;;;;15.18;13.77;;;15.90;99.90;;;-141.84;97.76;19917.50;5026757;28;20740;-59
2023/09/03 01:23:02;;;;;;;17.02;15.43;;;15.90;99.90;;;-141.84;97.88;19919.53;5027306;28;20234;-58
2023/09/03 01:26:04;;;;;;;16.27;14.70;;;15.90;99.90;;;-141.84;97.21;19978.47;5046425;28;20225;-59
2023/09/03 01:28:38;;;;;;;15.25;13.85;;;16.00;99.90;;;-141.84;96.56;19984.56;5044081;28;20233;-62
2023/09/03 01:31:11;;;;;;;15.20;13.80;;;16.00;99.90;;;-141.84;97.01;19968.31;5047023;28;20229;-60
2023/09/03 01:33:42;;;;;;;14.48;13.18;;;16.00;99.90;;;-141.84;97.08;19968.31;5047490;28;20232;-59
2023/09/03 01:36:12;;;;;;;14.52;13.20;;;16.00;99.90;;;-141.84;97.17;19935.78;5047546;28;20212;-60
2023/09/03 01:38:42;;;;;;;14.52;13.13;;;15.90;99.90;;;-141.84;97.30;19962.19;5041012;28;20574;-59
2023/09/03 01:41:10;;;;;;;14.55;13.15;;;15.90;99.90;;;-141.84;97.33;19931.72;5031716;28;20232;-58
2023/09/03 01:43:41;;;;;;;14.80;13.40;;;15.90;99.90;;;-141.84;97.51;19947.97;5027182;28;20249;-59
2023/09/03 01:46:19;;;;;;;14.25;13.05;;;15.80;99.90;;;-141.84;97.68;19897.16;5033439;28;20247;-59
2023/09/03 01:49:06;;;;;;;16.00;14.50;;;15.80;99.90;;;-141.84;97.83;19935.78;5039477;28;20723;-60
2023/09/03 01:51:43;;;;;;;14.93;13.52;;;15.80;99.90;;;-141.84;97.92;19911.41;5047009;28;20315;-59
2023/09/03 01:54:22;;;;;;;15.55;14.15;;;15.80;99.90;;;-141.84;97.89;19899.19;5036645;28;20201;-60
2023/09/03 01:56:59;;;;;;;16.95;15.30;;;15.70;99.90;;;-141.84;98.14;19844.31;5011875;28;20244;-60
2023/09/03 01:59:41;;;;;;;16.80;15.30;;;15.70;99.90;;;-141.84;98.41;19884.97;5043625;28;20320;-59
2023/09/03 02:02:10;;;;;;;15.75;14.30;;;15.70;99.90;;;-141.84;98.38;19854.50;5046847;28;20312;-59
2023/09/03 02:04:39;;;;;;;15.68;14.18;;;15.70;99.90;;;-141.84;98.40;19870.75;5000347;28;20230;-59
2023/09/03 02:07:08;;;;;;;16.58;14.13;;;15.60;99.90;;;-141.84;98.55;19850.41;5007117;28;20280;-59
2023/09/03 02:09:36;;;;;;;14.85;13.55;;;15.60;99.90;;;-141.84;98.78;19821.97;5001594;28;20636;-59
2023/09/03 02:12:07;;;;;;;15.00;13.60;;;15.60;99.90;;;-141.84;98.79;19834.16;4987227;28;20259;-61
2023/09/03 02:14:37;;;;;;;14.63;13.32;;;15.60;99.90;;;-141.84;98.83;19862.63;4989441;28;20245;-61
2023/09/03 02:17:05;;;;;;;14.90;13.35;;;15.60;99.90;;;-141.84;98.94;19848.38;5007185;28;20233;-59
2023/09/03 02:19:33;;;;;;;14.75;13.30;;;15.60;99.90;;;-141.84;98.99;19862.63;5006921;28;20238;-59
2023/09/03 02:22:02;;;;;;;14.30;12.93;;;15.60;99.90;;;-141.84;99.15;19862.63;5009173;28;20218;-59
2023/09/03 02:24:30;;;;;;;15.02;13.63;;;15.50;99.90;;;-141.84;99.14;19769.13;5017018;28;20649;-58
2023/09/03 02:27:00;;;;;;;16.13;14.63;;;15.50;99.90;;;-141.84;99.21;19821.97;5007203;28;20238;-59
2023/09/03 02:29:28;;;;;;;15.73;14.07;;;15.50;99.90;;;-141.84;99.07;19830.09;5006676;28;20202;-58
2023/09/03 02:31:57;;;;;;;16.58;14.98;;;15.40;99.90;;;-141.84;99.18;19785.38;5006287;28;20262;-59
2023/09/03 02:34:26;;;;;;;15.48;14.07;;;15.50;99.90;;;-141.84;99.24;19787.41;5006385;28;20970;-59
2023/09/03 02:36:54;;;;;;;15.10;13.70;;;15.40;99.90;;;-141.84;99.31;19830.09;4999106;28;20651;-58
2023/09/03 02:39:22;;;;;;;15.98;14.38;;;15.40;99.90;;;-141.84;99.28;19811.81;5006638;28;20231;-58
2023/09/03 02:41:51;;;;;;;14.48;13.07;;;15.40;99.90;;;-141.84;99.11;19789.44;5006723;28;20734;-58
2023/09/03 02:44:20;;;;;;;16.08;14.57;;;15.40;99.90;;;-141.84;99.10;19801.66;5026434;28;20296;-59
2023/09/03 02:46:48;;;;;;;15.73;14.13;;;15.40;99.90;;;-141.84;99.18;19813.84;5018970;28;20593;-58
2023/09/03 02:49:18;;;;;;;16.85;15.13;;;15.30;99.90;;;-141.84;99.26;19805.72;5025539;28;20295;-60
2023/09/03 02:51:46;;;;;;;16.67;15.13;;;15.30;99.90;;;-141.84;99.15;19761.00;5026203;28;20310;-59
2023/09/03 02:54:14;;;;;;;15.88;14.20;;;15.30;99.90;;;-141.84;99.05;19801.66;5030902;28;20745;-60
2023/09/03 02:56:42;;;;;;;15.02;13.63;;;15.30;99.90;;;-141.84;99.23;19736.59;5019785;28;20218;-60
2023/09/03 02:59:10;;;;;;;15.30;13.80;;;15.30;99.90;;;-141.84;99.44;19763.03;5025854;28;20316;-59
2023/09/03 03:01:38;;;;;;;15.82;14.25;;;15.30;99.90;;;-141.84;99.51;19797.59;5025772;28;20261;-60
2023/09/03 03:04:07;;;;;;;16.80;15.15;;;15.30;99.90;;;-141.84;99.46;19828.06;5010073;28;20224;-59
2023/09/03 03:06:36;;;;;;;16.17;14.50;;;15.30;99.90;;;-141.84;99.36;19793.50;4998929;28;20313;-60
2023/09/03 03:09:06;;;;;;;15.73;14.18;;;15.30;99.90;;;-141.84;99.48;19754.91;5005960;28;20214;-59
2023/09/03 03:11:34;;;;;;;15.75;14.20;;;15.30;99.90;;;-141.84;99.43;19789.44;5006562;28;20280;-59
2023/09/03 03:14:03;;;;;;;18.10;14.93;;;15.30;99.90;;;-141.84;99.35;19773.19;5006004;28;20333;-59
2023/09/03 03:16:31;;;;;;;15.70;14.20;;;15.30;99.90;;;-141.84;99.24;19803.69;5021695;28;20317;-59
2023/09/03 03:19:01;;;;;;;15.13;13.63;;;15.30;99.90;;;-141.84;98.94;19783.34;5028671;28;20296;-59
2023/09/03 03:21:29;;;;;;;15.45;13.90;;;15.40;99.90;;;-141.84;98.71;19805.72;5025737;28;20222;-60
2023/09/03 03:23:59;;;;;;;14.63;13.23;;;15.30;99.90;;;-141.84;98.84;19801.66;5031335;28;20213;-61
2023/09/03 03:26:26;;;;;;;15.10;13.73;;;15.30;99.90;;;-141.84;98.59;19830.09;5045673;28;20205;-59
2023/09/03 03:28:54;;;;;;;15.13;13.52;;;15.30;99.90;;;-141.84;98.37;19866.69;5023237;28;20240;-59
2023/09/03 03:31:23;;;;;;;14.80;13.40;;;15.30;99.90;;;-141.84;98.50;19821.97;5013090;28;20242;-59
2023/09/03 03:33:52;;;;;;;15.15;13.70;;;15.30;99.90;;;-141.84;98.42;19767.09;5005433;28;20218;-59
2023/09/03 03:36:22;;;;;;;14.77;13.27;;;15.30;99.90;;;-141.84;98.48;19807.75;5005265;28;20277;-59
2023/09/03 03:38:50;;;;;;;15.23;13.63;;;15.30;99.90;;;-141.84;98.45;19801.66;4998686;28;20222;-59
2023/09/03 03:41:21;;;;;;;15.50;13.85;;;15.30;99.90;;;-141.84;98.42;19783.34;5024289;28;20614;-59
2023/09/03 03:43:51;;;;;;;16.60;14.90;;;15.30;99.90;;;-141.84;98.42;19785.38;5025113;28;20273;-59
2023/09/03 03:46:21;;;;;;;15.65;14.10;;;15.30;99.90;;;-141.84;98.27;19781.31;5024976;28;20245;-59
2023/09/03 03:48:50;;;;;;;16.75;14.75;;;15.30;99.90;;;-141.84;98.23;19809.78;5016964;28;20230;-60
2023/09/03 03:51:18;;;;;;;16.00;14.50;;;15.30;99.90;;;-141.84;98.13;19805.72;5025197;28;20230;-61
2023/09/03 03:53:46;;;;;;;15.48;14.00;;;15.30;99.90;;;-141.84;97.88;19834.16;5029551;28;20237;-60
2023/09/03 03:56:15;;;;;;;17.02;15.23;;;15.20;99.90;;;-141.84;96.94;19870.75;5044712;28;20320;-60
2023/09/03 03:58:45;;;;;;;16.40;14.57;;;15.30;99.90;;;-141.84;96.25;19870.75;5037732;28;20225;-59
2023/09/03 04:01:15;;;;;;;16.27;14.48;;;15.30;99.90;;;-141.84;96.35;19882.94;5044844;28;20237;-58
2023/09/03 04:03:44;;;;;;;18.08;15.55;;;15.30;99.90;;;-141.84;96.63;19821.97;5025160;28;20225;-58
2023/09/03 04:06:13;;;;;;;16.45;14.73;;;15.20;99.90;;;-141.84;96.94;19836.19;5004804;28;20242;-58
2023/09/03 04:08:43;;;;;;;17.15;15.35;;;15.20;99.90;;;-141.84;97.21;19821.97;4998814;28;20253;-60
2023/09/03 04:11:14;;;;;;;17.58;14.85;;;15.20;99.90;;;-141.84;97.43;19828.06;5004569;28;21135;-59
2023/09/03 04:13:43;;;;;;;17.45;15.57;;;15.10;99.90;;;-141.84;97.53;19850.41;5029934;28;20759;-60
2023/09/03 04:16:14;;;;;;;18.10;16.08;;;15.10;99.90;;;-141.84;97.62;19805.72;5043175;28;20307;-60
2023/09/03 04:18:44;;;;;;;17.15;15.45;;;15.10;99.90;;;-141.84;97.80;19844.31;5023449;28;20229;-59
2023/09/03 04:21:13;;;;;;;18.48;16.58;;;15.10;99.90;;;-141.84;97.98;19793.50;5024732;28;20321;-59
2023/09/03 04:23:41;;;;;;;18.10;15.95;;;15.10;99.90;;;-141.84;98.14;19789.44;5028704;28;20209;-58
2023/09/03 04:26:11;;;;;;;17.65;15.85;;;15.10;99.90;;;-141.84;98.10;19793.50;5044330;28;20253;-60
2023/09/03 04:28:39;;;;;;;16.85;15.15;;;15.10;99.90;;;-141.84;98.05;19771.16;5037288;28;20241;-59
2023/09/03 04:31:09;;;;;;;17.80;16.00;;;15.10;99.90;;;-141.84;98.21;19801.66;5032202;28;20233;-59
2023/09/03 04:33:37;;;;;;;17.13;15.43;;;15.10;99.90;;;-141.84;98.28;19791.47;5024546;28;20754;-67
2023/09/03 04:36:08;;;;;;;18.00;16.17;;;15.10;99.90;;;-141.84;98.26;19830.09;5024217;28;20245;-66
2023/09/03 04:38:36;;;;;;;17.55;15.68;;;15.10;99.90;;;-141.84;98.19;19817.91;5018110;28;20209;-64
2023/09/03 04:41:06;;;;;;;21.67;17.48;;;15.10;99.90;;;-141.84;98.30;19797.59;5023948;28;20230;-59
2023/09/03 04:43:37;;;;;;;18.40;16.52;;;15.10;99.90;;;-141.84;98.25;19789.44;5024084;28;20303;-60
2023/09/03 04:46:05;;;;;;;18.85;16.88;;;15.20;99.90;;;-141.84;98.30;19801.66;5024170;28;20300;-59
2023/09/03 04:48:35;;;;;;;19.40;17.00;;;15.30;99.90;;;-141.84;98.14;19834.16;5017261;28;20755;-62
2023/09/03 04:51:04;;;;;;;18.25;16.45;;;15.30;99.90;;;-141.84;97.31;19848.38;5024014;28;20238;-60
2023/09/03 04:53:33;;;;;;;17.38;15.60;;;15.40;99.90;;;-141.84;96.54;19884.97;5026988;28;20317;-60
2023/09/03 04:56:02;;;;;;;16.08;14.40;;;15.40;99.90;;;-141.84;95.74;19915.47;5043360;28;20742;-59
2023/09/03 04:58:30;;;;;;;16.17;14.57;;;15.50;99.90;;;-141.84;94.99;19917.50;5044550;28;20626;-59
2023/09/03 05:00:59;;;;;;;16.05;14.52;;;15.50;99.90;;;-141.84;94.19;19939.84;5041124;28;20264;-60
2023/09/03 05:03:27;;;;;;;14.10;12.70;;;15.60;99.90;;;-141.84;94.06;19972.38;5032551;28;20291;-60
2023/09/03 05:05:57;;;;;;;17.10;14.93;;;15.70;99.90;;;-141.84;92.86;19990.66;5024030;28;20217;-60
2023/09/03 05:08:25;;;;;;;14.15;12.65;;;15.70;99.90;;;-141.84;92.27;20002.84;5024813;28;20213;-58
2023/09/03 05:10:53;;;;;;;16.25;12.65;;;15.80;99.90;;;-141.84;92.31;19931.72;5034434;28;20248;-58
2023/09/03 05:13:21;;;;;;;14.27;12.82;;;15.80;99.90;;;-141.84;91.84;19974.41;5044083;28;20583;-59
2023/09/03 05:15:52;;;;;;;14.10;12.70;;;15.90;99.90;;;-141.84;91.54;19994.72;5044115;28;20302;-59
2023/09/03 05:18:20;;;;;;;13.80;12.40;;;15.90;99.90;;;-141.84;90.92;20031.31;5032839;28;20229;-60
2023/09/03 05:20:48;;;;;;;13.90;12.50;;;16.00;99.90;;;-141.84;90.41;20039.44;5016827;28;20284;-59
2023/09/03 05:23:18;;;;;;;14.00;12.70;;;16.00;99.90;;;-141.84;89.33;20047.56;5024115;28;20255;-59
2023/09/03 05:25:46;;;;;;;12.65;11.55;;;16.00;99.90;;;-141.84;88.33;20043.50;5043474;28;20308;-60
2023/09/03 05:28:14;;;;;;;11.63;10.52;;;16.10;99.90;;;-141.84;88.64;20027.25;5024724;28;20230;-60
2023/09/03 05:30:42;;;;;;;12.77;11.45;;;16.10;99.90;;;-141.84;87.10;20084.16;5017192;28;20296;-59
2023/09/03 05:33:10;;;;;;;13.07;11.75;;;16.20;99.90;;;-141.84;87.43;20108.53;5023936;28;20233;-59
2023/09/03 05:35:41;;;;;;;11.63;10.43;;;16.10;99.90;;;-141.84;86.54;20023.19;5024303;28;20233;-59
2023/09/03 05:38:09;;;;;;;11.77;10.77;;;16.20;99.90;;;-141.84;86.43;20069.94;5023709;28;20856;-59
2023/09/03 05:40:40;;;;;;;12.20;10.88;;;16.20;99.90;;;-141.84;86.41;20082.13;5017026;28;20238;-61
2023/09/03 05:43:08;;;;;;;10.80;9.85;;;16.10;99.90;;;-141.84;85.72;20118.69;5023690;28;20288;-66
2023/09/03 05:45:42;;;;;;;11.07;9.95;;;16.20;99.90;;;-141.84;85.70;20074.00;5024003;28;20262;-65
2023/09/03 05:48:11;;;;;;;10.50;9.50;;;16.20;99.90;;;-141.84;84.90;20116.66;5023925;28;20268;-66
2023/09/03 05:50:39;;;;;;;10.95;9.48;;;16.20;99.90;;;-141.84;83.60;20124.81;5017720;28;20588;-66
2023/09/03 05:53:07;;;;;;;9.35;8.55;;;16.30;99.90;;;-141.84;84.18;20100.41;5023635;28;20305;-67
2023/09/03 05:55:39;;;;;;;10.50;9.50;;;16.30;99.90;;;-141.84;84.08;20139.03;5040361;28;20272;-66
2023/09/03 05:58:08;;;;;;;10.52;9.52;;;16.30;99.90;;;-141.84;83.46;20147.16;5043025;28;20786;-66
2023/09/03 06:00:42;;;;;;;9.82;8.82;;;16.40;99.90;;;-141.84;83.22;20169.53;5019246;28;20642;-66
2023/09/03 06:03:11;;;;;;;9.32;8.43;;;16.50;99.90;;;-141.84;83.20;20159.34;5020869;28;20220;-66
2023/09/03 06:05:40;;;;;;;9.45;8.57;;;16.60;99.90;;;-141.84;82.48;20179.69;5006715;28;20218;-66
2023/09/03 06:08:08;;;;;;;9.57;7.97;;;16.60;99.90;;;-141.84;80.91;20208.13;5025124;28;20233;-66
2023/09/03 06:10:39;;;;;;;9.93;8.23;;;16.70;99.90;;;-141.84;80.34;20218.31;5019359;28;20316;-68
2023/09/03 06:13:08;;;;;;;9.00;8.18;;;16.80;99.90;;;-141.84;79.65;20250.81;5026289;28;20229;-66
2023/09/03 06:15:36;;;;;;;9.70;8.80;;;16.80;99.90;;;-141.84;79.47;20236.59;5027038;28;20245;-65
2023/09/03 06:18:05;;;;;;;8.70;7.80;;;16.80;99.90;;;-141.84;80.01;20224.41;5026622;28;20560;-67
2023/09/03 06:20:37;;;;;;;8.95;8.15;;;16.90;99.90;;;-141.84;78.54;20289.44;5023083;28;20293;-66
2023/09/03 06:23:05;;;;;;;8.05;7.35;;;17.00;99.90;;;-141.84;78.72;20297.56;5026815;28;20296;-65
2023/09/03 06:25:33;;;;;;;8.75;7.93;;;17.10;99.90;;;-141.84;77.48;20354.47;5045203;28;20256;-67
2023/09/03 06:28:02;;;;;;;8.68;7.80;;;17.30;99.90;;;-141.84;74.85;20407.34;5046226;28;20712;-65
2023/09/03 06:30:32;;;;;;;8.35;7.63;;;17.40;99.90;;;-141.84;74.61;20435.78;5045871;28;20569;-66
2023/09/03 06:33:00;;;;;;;7.82;7.13;;;17.70;99.90;;;-141.84;75.35;20445.94;5043207;28;20217;-66
2023/09/03 06:35:29;;;;;;;7.40;6.70;;;17.50;99.90;;;-141.84;75.75;20350.41;5046985;28;20233;-67
2023/09/03 06:37:57;;;;;;;7.75;7.05;;;17.40;99.90;;;-141.84;76.37;20399.19;5045681;28;20263;-66
2023/09/03 06:40:26;;;;;;;7.55;6.85;;;17.40;99.90;;;-141.84;75.54;20439.84;5046055;28;20261;-66
2023/09/03 06:42:54;;;;;;;7.45;6.72;;;17.60;99.90;;;-141.84;75.37;20417.50;5039180;28;20244;-66
2023/09/03 06:45:22;;;;;;;7.65;6.90;;;17.60;99.90;;;-141.84;74.70;20439.84;5045917;28;20264;-66
2023/09/03 06:47:52;;;;;;;6.95;6.35;;;17.70;99.90;;;-141.84;74.18;20462.22;5046351;28;20296;-67
2023/09/03 06:50:20;;;;;;;9.10;6.88;;;17.70;99.90;;;-141.84;73.85;20496.78;5046543;28;20791;-66
2023/09/03 06:52:48;;;;;;;7.47;6.65;;;17.70;99.90;;;-141.84;73.66;20472.38;5039092;28;20252;-66
2023/09/03 06:55:17;;;;;;;7.88;7.13;;;17.70;99.90;;;-141.84;73.86;20492.72;5029559;28;20732;-68
2023/09/03 06:57:46;;;;;;;7.53;6.82;;;17.80;99.90;;;-141.84;72.88;20523.19;5012886;28;20226;-66
2023/09/03 07:00:16;;;;;;;6.90;6.15;;;18.00;99.90;;;-141.84;72.97;20537.44;5014386;28;20652;-66
2023/09/03 07:02:44;;;;;;;7.82;7.03;;;18.00;99.90;;;-141.84;72.11;20557.75;5027113;28;20206;-67
2023/09/03 07:05:14;;;;;;;7.35;6.65;;;18.00;99.90;;;-141.84;71.88;20496.78;5006723;28;20231;-66
2023/09/03 07:07:43;;;;;;;7.78;7.00;;;17.90;99.90;;;-141.84;72.27;20551.66;5005589;28;20792;-67
2023/09/03 07:10:11;;;;;;;8.55;7.40;;;18.00;99.90;;;-141.84;71.38;20571.97;5006067;28;20672;-69
2023/09/03 07:12:39;;;;;;;7.53;6.90;;;18.00;99.90;;;-141.84;71.54;20567.91;4998305;28;20377;-66
2023/09/03 07:15:09;;;;;;;7.95;7.15;;;18.00;99.90;;;-141.84;72.57;20492.72;5005162;28;20694;-67
2023/09/03 07:17:37;;;;;;;7.30;6.65;;;18.00;99.90;;;-141.84;72.58;20541.50;5005511;28;20206;-70
2023/09/03 07:20:08;;;;;;;7.70;7.00;;;18.00;99.90;;;-141.84;71.88;20539.47;5023849;28;20269;-66
2023/09/03 07:22:37;;;;;;;7.55;6.75;;;17.90;99.90;;;-141.84;72.27;20549.63;5018005;28;20229;-67
2023/09/03 07:25:07;;;;;;;7.47;6.80;;;17.90;99.90;;;-141.84;71.36;20586.22;5040671;28;20225;-67
2023/09/03 07:27:38;;;;;;;6.13;5.63;;;18.10;99.90;;;-141.84;71.74;20578.09;5045590;28;20235;-66
2023/09/03 07:30:09;;;;;;;7.30;6.63;;;18.10;99.90;;;-141.84;71.23;20604.50;5045492;28;20265;-66
2023/09/03 07:32:37;;;;;;;7.43;6.72;;;18.30;99.90;;;-141.84;70.00;20669.56;5038650;28;20292;-66
2023/09/03 07:35:08;;;;;;;6.60;5.93;;;18.30;99.90;;;-141.84;70.34;20669.56;5045241;28;20241;-67
2023/09/03 07:37:38;;;;;;;8.35;6.53;;;18.50;99.90;;;-141.84;68.69;20779.31;5044676;28;20616;-68
2023/09/03 07:40:08;;;;;;;7.28;6.50;;;18.70;99.90;;;-141.84;66.84;20868.78;5037830;28;20249;-66
2023/09/03 07:42:36;;;;;;;6.97;6.28;;;18.90;99.90;;;-141.84;67.53;20860.66;5018033;28;20228;-66
2023/09/03 07:45:05;;;;;;;6.15;5.65;;;19.10;99.90;;;-141.84;66.98;20915.53;5024613;28;20240;-65
2023/09/03 07:47:34;;;;;;;7.32;6.18;;;19.20;99.90;;;-141.84;66.79;20913.50;5025688;28;20903;-66
2023/09/03 07:50:02;;;;;;;6.97;6.20;;;19.20;99.90;;;-141.84;67.88;20846.41;5024495;28;20275;-67
2023/09/03 07:52:30;;;;;;;6.90;6.20;;;19.00;99.90;;;-141.84;68.37;20801.69;5024913;28;20283;-66
2023/09/03 07:55:00;;;;;;;6.65;5.97;;;18.90;99.90;;;-141.84;68.94;20838.28;5035987;28;20257;-66
2023/09/03 07:57:33;;;;;;;6.68;6.07;;;18.90;99.90;;;-141.84;67.86;20870.81;5024627;28;20284;-67
2023/09/03 08:00:01;;;;;;;6.65;6.05;;;19.00;99.90;;;-141.84;67.18;20919.59;5012039;28;20222;-66
2023/09/03 08:02:31;;;;;;;6.22;5.13;;;19.00;99.90;;;-141.84;68.03;20856.56;5025149;28;20209;-67
2023/09/03 08:04:59;;;;;;;6.07;5.47;;;19.00;99.90;;;-141.84;68.21;20828.13;5021584;28;20240;-67
2023/09/03 08:07:27;;;;;;;5.55;5.05;;;19.00;99.90;;;-141.84;68.41;20830.16;5024670;28;20229;-67
2023/09/03 08:09:56;;;;;;;7.60;5.68;;;19.10;99.90;;;-141.84;67.87;20854.53;5024696;28;20632;-67
2023/09/03 08:12:26;;;;;;;6.88;5.22;;;19.20;99.90;;;-141.84;66.18;20944.00;5023979;28;20226;-66
2023/09/03 08:14:54;;;;;;;6.43;5.55;;;19.30;99.90;;;-141.84;66.23;20992.78;5017382;28;20764;-65
2023/09/03 08:17:26;;;;;;;6.47;5.40;;;19.40;99.90;;;-141.84;66.04;21009.03;5024760;28;20618;-67
2023/09/03 08:19:54;;;;;;;6.03;5.43;;;19.60;99.90;;;-141.84;65.70;21011.09;5024816;28;20320;-67
2023/09/03 08:22:22;;;;;;;5.90;4.57;;;19.70;99.90;;;-141.84;65.23;21096.47;5024362;28;20237;-67
2023/09/03 08:24:51;;;;;;;5.47;4.85;;;19.90;99.90;;;-141.84;63.92;21094.44;5029598;28;20229;-67
2023/09/03 08:27:19;;;;;;;7.63;5.35;;;20.00;99.90;;;-141.84;64.34;21106.63;5043834;28;20310;-66
2023/09/03 08:29:49;;;;;;;5.63;5.13;;;20.00;99.90;;;-141.84;64.37;21061.91;5044668;28;20294;-66
2023/09/03 08:32:17;;;;;;;4.90;4.50;;;19.80;99.90;;;-141.84;64.61;21090.38;5043975;28;20225;-66
2023/09/03 08:34:45;;;;;;;6.47;5.68;;;19.80;99.90;;;-141.84;64.32;21045.63;5036737;28;20264;-68
2023/09/03 08:37:13;;;;;;;5.78;4.82;;;19.70;99.90;;;-141.84;65.05;21082.25;5043813;28;20298;-66
2023/09/03 08:39:42;;;;;;;4.97;4.30;;;19.60;99.90;;;-141.84;64.37;21078.16;5043700;28;20229;-66
2023/09/03 08:42:14;;;;;;;4.68;4.22;;;19.80;99.90;;;-141.84;64.04;21192.03;5043706;28;20294;-66
2023/09/03 08:44:50;;;;;;;4.97;3.92;;;19.90;99.90;;;-141.84;62.58;21187.97;5036899;28;20251;-68
2023/09/03 08:47:19;;;;;;;4.85;3.75;;;20.00;99.90;;;-141.84;62.58;21250.97;5023212;28;20236;-66
2023/09/03 08:49:50;;;;;;;4.35;3.47;;;20.20;99.90;;;-141.84;62.24;21281.47;5007987;28;20565;-67
2023/09/03 08:52:19;;;;;;;4.22;3.83;;;20.30;99.90;;;-141.84;62.46;21208.28;5004040;28;20281;-67
2023/09/03 08:54:48;;;;;;;4.55;4.00;;;20.20;99.90;;;-141.84;62.93;21159.50;4996993;28;20226;-67
2023/09/03 08:57:16;;;;;;;3.70;3.10;;;20.00;99.90;;;-141.84;63.74;21114.75;5003679;28;20238;-66
2023/09/03 08:59:45;;;;;;;5.55;3.20;;;20.00;99.90;;;-141.84;63.12;21181.84;5003638;28;20296;-66
2023/09/03 09:02:18;;;;;;;3.17;2.80;;;20.00;99.90;;;-141.84;63.52;21159.50;5004251;28;20309;-68
2023/09/03 09:04:48;;;;;;;4.93;3.50;;;20.00;99.90;;;-141.84;62.60;21183.88;4997801;28;20226;-67
2023/09/03 09:07:19;;;;;;;4.40;2.92;;;20.10;99.90;;;-141.84;63.00;21202.19;5004841;28;20652;-67
2023/09/03 09:09:51;;;;;;;4.32;3.10;;;20.20;99.90;;;-141.84;63.92;21153.41;5004512;28;20246;-67
2023/09/03 09:12:28;;;;;;;4.50;3.20;;;20.10;99.90;;;-141.84;63.58;21143.22;5004614;28;20301;-68
2023/09/03 09:15:02;;;;;;;4.68;3.05;;;20.00;99.90;;;-141.84;61.85;21181.84;4996100;28;20874;-66
2023/09/03 09:17:38;;;;;;;3.17;2.88;;;20.20;99.90;;;-141.84;61.81;21204.22;4989593;28;20289;-66
2023/09/03 09:20:08;;;;;;;4.28;2.83;;;20.20;99.90;;;-141.84;61.64;21289.59;4998157;28;20222;-67
2023/09/03 09:22:41;;;;;;;3.67;3.30;;;20.20;99.90;;;-141.84;60.23;21307.91;4997745;28;20226;-67
2023/09/03 09:25:10;;;;;;;4.68;2.92;;;20.30;99.90;;;-141.84;59.75;21342.47;5019097;28;20230;-67
2023/09/03 09:27:39;;;;;;;4.95;2.97;;;20.30;99.90;;;-141.84;60.68;21267.25;5004118;28;20698;-67
2023/09/03 09:30:14;;;;;;;5.38;3.40;;;20.30;99.90;;;-141.84;59.14;21370.94;4995046;28;20222;-66
2023/09/03 09:32:45;;;;;;;2.88;2.60;;;20.40;99.90;;;-141.84;60.49;21287.56;4997648;28;20210;-67
2023/09/03 09:35:25;;;;;;;2.53;2.30;;;20.40;99.90;;;-141.84;58.82;21350.59;5003269;28;20234;-67
2023/09/03 09:37:53;;;;;;;3.10;2.60;;;20.50;99.90;;;-141.84;58.08;21405.50;5020794;28;20595;-66
2023/09/03 09:40:29;;;;;;;3.15;2.15;;;20.70;99.90;;;-141.84;57.47;21377.03;5025839;28;20313;-67
2023/09/03 09:43:00;;;;;;;3.10;2.22;;;20.60;99.90;;;-141.84;56.98;21421.75;5022128;28;20242;-66
2023/09/03 09:45:29;;;;;;;3.08;2.08;;;20.60;99.90;;;-141.84;57.82;21403.47;5027456;28;20312;-67
2023/09/03 09:48:07;;;;;;;2.05;1.85;;;20.70;99.90;;;-141.84;55.80;21507.16;5026492;28;20206;-67
2023/09/03 09:50:37;;;;;;;2.72;2.00;;;20.90;99.90;;;-141.84;55.65;21541.72;5001322;28;20217;-67
2023/09/03 09:53:19;;;;;;;3.85;2.35;;;20.90;99.90;;;-141.84;54.73;21582.38;4989543;28;20235;-67
2023/09/03 09:55:48;;;;;;;2.85;2.13;;;21.00;99.90;;;-141.84;55.03;21551.91;5011289;28;20233;-63
2023/09/03 09:58:16;;;;;;;2.65;2.20;;;21.20;99.90;;;-141.84;54.93;21511.22;5026409;28;20270;-63
2023/09/03 10:00:44;;;;;;;2.20;2.00;;;21.00;99.90;;;-141.84;55.07;21547.81;5015946;28;20250;-62
2023/09/03 10:03:15;;;;;;;3.65;2.55;;;21.00;99.90;;;-141.84;55.15;21533.59;5020490;28;20618;-63
2023/09/03 10:05:49;;;;;;;2.55;2.30;;;20.90;99.90;;;-141.84;54.43;21588.50;5019899;28;20206;-63
2023/09/03 10:08:17;;;;;;;2.90;2.25;;;21.10;99.90;;;-141.84;54.34;21582.38;5018571;28;20234;-66
2023/09/03 10:10:46;;;;;;;3.35;2.20;;;21.20;99.90;;;-141.84;54.65;21600.69;5011466;28;20314;-66